Time;durP1;ratioP1;P1;durP2;ratioP2;P2;SDS_P1;SDS_P2;PMS_P1;PMS_P2;Temp;Humidity;BMP_temperature;BMP_pressure;BME280_temperature;BME280_humidity;BME280_pressure;Samples;Min_cycle;Max_cycle;Signal;HPM_P1;HPM_P2
2023/09/08 00:01:00;;;;;;;1.90;1.80;;;;;17.50;96329.00;;;;4977558;28;20282;-62
2023/09/08 00:03:28;;;;;;;0.93;0.93;;;;;17.40;96322.00;;;;4977933;28;20206;-62
2023/09/08 00:05:55;;;;;;;1.20;1.10;;;;;17.40;96322.00;;;;4977803;28;20194;-62
2023/09/08 00:08:23;;;;;;;1.93;1.83;;;;;17.50;96332.00;;;;4977307;28;20220;-62
2023/09/08 00:10:51;;;;;;;1.63;1.00;;;;;17.30;96322.00;;;;4977239;28;20698;-62
2023/09/08 00:13:19;;;;;;;1.20;1.13;;;;;17.30;96323.00;;;;4977398;28;20202;-62
2023/09/08 00:15:47;;;;;;;1.00;1.00;;;;;17.20;96321.00;;;;4977465;28;20656;-62
2023/09/08 00:18:14;;;;;;;0.93;0.93;;;;;17.20;96318.00;;;;4975841;28;20203;-62
2023/09/08 00:20:42;;;;;;;0.80;0.80;;;;;17.20;96315.00;;;;4977233;28;20218;-62
2023/09/08 00:23:10;;;;;;;2.30;2.07;;;;;17.00;96313.00;;;;4977715;28;20203;-62
2023/09/08 00:25:37;;;;;;;1.83;1.73;;;;;17.10;96317.00;;;;4977062;28;20195;-62
2023/09/08 00:28:06;;;;;;;1.73;1.63;;;;;17.00;96319.00;;;;4976909;28;20194;-62
2023/09/08 00:30:35;;;;;;;1.33;1.23;;;;;17.00;96316.00;;;;4975725;28;20277;-62
2023/09/08 00:33:02;;;;;;;1.07;1.07;;;;;17.00;96305.00;;;;4977219;28;20206;-62
2023/09/08 00:35:29;;;;;;;1.70;1.60;;;;;17.10;96316.00;;;;4976188;28;20205;-62
2023/09/08 00:37:57;;;;;;;1.70;1.60;;;;;17.10;96314.00;;;;4976927;28;20191;-62
2023/09/08 00:40:24;;;;;;;1.50;1.40;;;;;16.90;96308.00;;;;4976648;28;20560;-62
2023/09/08 00:42:51;;;;;;;1.30;1.30;;;;;16.90;96311.00;;;;4976988;28;20201;-62
2023/09/08 00:45:19;;;;;;;1.30;1.30;;;;;16.90;96308.00;;;;4976654;28;20199;-62
2023/09/08 00:47:48;;;;;;;0.97;0.97;;;;;16.90;96301.00;;;;4976762;28;20199;-62
2023/09/08 00:50:15;;;;;;;1.20;1.20;;;;;17.00;96307.00;;;;4976618;28;20682;-62
2023/09/08 00:52:45;;;;;;;2.07;1.70;;;;;17.00;96305.00;;;;4976622;28;20199;-62
2023/09/08 00:55:13;;;;;;;0.93;0.93;;;;;17.00;96305.00;;;;4976596;28;20248;-62
2023/09/08 00:57:40;;;;;;;1.67;1.57;;;;;17.00;96301.00;;;;4976452;28;20183;-62
2023/09/08 01:00:09;;;;;;;1.10;1.10;;;;;17.00;96300.00;;;;4976270;28;20219;-62
2023/09/08 01:02:36;;;;;;;1.83;1.73;;;;;16.80;96298.00;;;;4976633;28;20295;-62
2023/09/08 01:05:05;;;;;;;1.17;1.13;;;;;16.70;96303.00;;;;4976322;28;20662;-62
2023/09/08 01:07:34;;;;;;;1.27;1.20;;;;;16.60;96309.00;;;;4976557;28;20575;-62
2023/09/08 01:10:04;;;;;;;1.10;1.10;;;;;16.60;96303.00;;;;4976239;28;20214;-62
2023/09/08 01:12:31;;;;;;;1.23;1.23;;;;;16.60;96307.00;;;;4976077;28;20266;-62
2023/09/08 01:14:59;;;;;;;2.93;1.60;;;;;16.60;96313.00;;;;4976078;28;20230;-62
2023/09/08 01:17:27;;;;;;;1.53;1.43;;;;;16.60;96298.00;;;;4976068;28;20201;-62
2023/09/08 01:19:57;;;;;;;2.07;1.87;;;;;16.60;96296.00;;;;4976496;28;20541;-62
2023/09/08 01:22:46;;;;;;;1.83;1.63;;;;;16.60;96295.00;;;;4975985;28;20191;-62
2023/09/08 01:25:20;;;;;;;1.90;1.80;;;;;16.70;96294.00;;;;4976139;28;20626;-61
2023/09/08 01:27:50;;;;;;;1.73;1.63;;;;;16.50;96305.00;;;;4976364;28;20186;-61
2023/09/08 01:30:18;;;;;;;1.70;1.57;;;;;16.40;96301.00;;;;4975730;28;20215;-61
2023/09/08 01:32:46;;;;;;;1.57;1.47;;;;;16.50;96297.00;;;;4975889;28;20191;-61
2023/09/08 01:35:14;;;;;;;3.30;2.23;;;;;16.60;96302.00;;;;4975993;28;20202;-61
2023/09/08 01:37:43;;;;;;;1.90;1.80;;;;;16.50;96298.00;;;;4975539;28;20202;-61
2023/09/08 01:40:11;;;;;;;1.17;1.17;;;;;16.40;96293.00;;;;4975527;28;20249;-61
2023/09/08 01:42:40;;;;;;;1.20;1.20;;;;;16.40;96292.00;;;;4975531;28;20195;-62
2023/09/08 01:45:09;;;;;;;1.23;1.23;;;;;16.30;96290.00;;;;4975411;28;20535;-62
2023/09/08 01:47:37;;;;;;;1.10;1.10;;;;;16.30;96288.00;;;;4974866;28;20570;-61
2023/09/08 01:50:05;;;;;;;0.83;0.83;;;;;16.20;96285.00;;;;4975803;28;20211;-61
2023/09/08 01:52:32;;;;;;;0.93;0.93;;;;;16.10;96286.00;;;;4975560;28;20584;-61
2023/09/08 01:55:00;;;;;;;1.90;1.80;;;;;16.10;96289.00;;;;4975131;28;20248;-62
2023/09/08 01:57:27;;;;;;;1.73;1.67;;;;;16.00;96286.00;;;;4975638;28;20541;-63
2023/09/08 01:59:56;;;;;;;0.83;0.83;;;;;16.10;96289.00;;;;4973867;28;20662;-62
2023/09/08 02:02:23;;;;;;;1.13;1.13;;;;;16.10;96283.00;;;;4973965;28;20654;-62
2023/09/08 02:04:50;;;;;;;1.70;1.60;;;;;16.20;96289.00;;;;4974468;28;20207;-62
2023/09/08 02:07:26;;;;;;;1.87;1.63;;;;;16.20;96282.00;;;;5111630;27;20554;-61
2023/09/08 02:09:53;;;;;;;1.23;1.20;;;;;16.20;96280.00;;;;5109561;28;20634;-61
2023/09/08 02:12:21;;;;;;;1.40;1.33;;;;;16.10;96278.00;;;;5110746;28;20194;-61
2023/09/08 02:14:49;;;;;;;1.27;1.27;;;;;16.00;96276.00;;;;5110950;28;20182;-62
2023/09/08 02:17:16;;;;;;;1.40;1.40;;;;;15.90;96283.00;;;;5110962;28;20216;-61
2023/09/08 02:19:43;;;;;;;1.40;1.30;;;;;16.00;96280.00;;;;5110745;28;20315;-61
2023/09/08 02:22:11;;;;;;;1.47;1.37;;;;;15.90;96279.00;;;;5110782;28;20657;-61
2023/09/08 02:24:40;;;;;;;1.00;1.00;;;;;15.90;96279.00;;;;5110643;28;20194;-61
2023/09/08 02:27:07;;;;;;;1.93;1.83;;;;;15.70;96272.00;;;;5110671;28;20218;-61
2023/09/08 02:29:35;;;;;;;0.90;0.90;;;;;15.70;96275.00;;;;5110582;28;20243;-61
2023/09/08 02:32:01;;;;;;;0.80;0.80;;;;;15.60;96269.00;;;;5110765;28;20190;-62
2023/09/08 02:34:28;;;;;;;0.83;0.83;;;;;15.60;96267.00;;;;5110741;28;20209;-62
2023/09/08 02:36:56;;;;;;;1.63;1.53;;;;;15.60;96274.00;;;;5110517;28;20189;-62
2023/09/08 02:39:26;;;;;;;1.10;1.10;;;;;15.60;96271.00;;;;5110778;28;20599;-61
2023/09/08 02:41:55;;;;;;;1.53;1.47;;;;;15.60;96263.00;;;;5110561;28;20263;-61
2023/09/08 02:44:22;;;;;;;1.10;1.10;;;;;15.70;96274.00;;;;5109050;28;20194;-61
2023/09/08 02:46:50;;;;;;;5.70;2.20;;;;;15.70;96265.00;;;;5110088;28;20271;-61
2023/09/08 02:49:17;;;;;;;1.40;1.40;;;;;15.60;96270.00;;;;5110248;28;20528;-61
2023/09/08 02:51:44;;;;;;;2.17;1.97;;;;;15.60;96274.00;;;;5110085;28;20221;-61
2023/09/08 02:54:12;;;;;;;1.20;1.20;;;;;15.60;96273.00;;;;5111076;28;20194;-61
2023/09/08 02:56:39;;;;;;;1.50;1.40;;;;;15.60;96270.00;;;;5108866;28;20714;-61
2023/09/08 02:59:08;;;;;;;1.57;1.47;;;;;15.50;96263.00;;;;5110447;28;20265;-62
2023/09/08 03:01:35;;;;;;;2.13;1.93;;;;;15.40;96270.00;;;;5109081;28;20271;-61
2023/09/08 03:04:03;;;;;;;1.57;1.47;;;;;15.40;96264.00;;;;5110472;28;20200;-61
2023/09/08 03:06:30;;;;;;;0.87;0.87;;;;;15.40;96261.00;;;;5109694;28;20237;-61
2023/09/08 03:08:59;;;;;;;1.47;1.37;;;;;15.40;96264.00;;;;5109685;28;20201;-61
2023/09/08 03:11:26;;;;;;;2.27;2.07;;;;;15.40;96258.00;;;;5109706;28;20267;-61
2023/09/08 03:13:53;;;;;;;1.47;1.37;;;;;15.40;96260.00;;;;5109504;28;20190;-61
2023/09/08 03:16:22;;;;;;;1.80;1.70;;;;;15.30;96261.00;;;;5109747;28;20193;-61
2023/09/08 03:18:49;;;;;;;2.30;1.60;;;;;15.20;96258.00;;;;5095706;28;20190;-61
2023/09/08 03:21:17;;;;;;;2.83;2.30;;;;;15.30;96263.00;;;;5095844;28;20214;-61
2023/09/08 03:23:45;;;;;;;1.67;1.57;;;;;15.30;96263.00;;;;5096338;28;20199;-61
2023/09/08 03:26:13;;;;;;;1.10;1.10;;;;;15.20;96259.00;;;;5095762;28;20213;-61
2023/09/08 03:28:42;;;;;;;1.20;1.20;;;;;15.20;96265.00;;;;5095734;28;20195;-61
2023/09/08 03:31:10;;;;;;;1.63;1.53;;;;;15.20;96270.00;;;;5095605;28;20217;-61
2023/09/08 03:33:39;;;;;;;1.27;1.27;;;;;15.10;96264.00;;;;5095624;28;20203;-61
2023/09/08 03:36:06;;;;;;;1.10;1.10;;;;;15.00;96262.00;;;;5095577;28;20187;-61
2023/09/08 03:38:33;;;;;;;1.70;1.60;;;;;15.20;96270.00;;;;5095882;28;20187;-61
2023/09/08 03:41:01;;;;;;;1.23;1.23;;;;;15.20;96256.00;;;;5095660;28;20221;-61
2023/09/08 03:43:28;;;;;;;2.13;2.00;;;;;15.20;96260.00;;;;5095449;28;20202;-61
2023/09/08 03:45:57;;;;;;;2.13;1.93;;;;;15.20;96255.00;;;;5095301;28;20677;-61
2023/09/08 03:48:24;;;;;;;0.97;0.97;;;;;15.20;96258.00;;;;5095309;28;20278;-61
2023/09/08 03:50:53;;;;;;;1.83;1.73;;;;;15.20;96258.00;;;;5095496;28;20214;-61
2023/09/08 03:53:20;;;;;;;1.60;1.50;;;;;15.10;96254.00;;;;5095164;28;20194;-61
2023/09/08 03:55:47;;;;;;;1.37;1.37;;;;;15.00;96258.00;;;;5095502;28;20553;-61
2023/09/08 03:58:15;;;;;;;1.50;1.40;;;;;15.00;96261.00;;;;5095263;28;20191;-61
2023/09/08 04:00:43;;;;;;;0.83;0.83;;;;;15.10;96255.00;;;;5095053;28;20218;-61
2023/09/08 04:03:10;;;;;;;2.23;2.03;;;;;15.00;96254.00;;;;5095752;28;20650;-62
2023/09/08 04:05:38;;;;;;;2.47;2.27;;;;;15.00;96259.00;;;;5095001;28;20206;-61
2023/09/08 04:08:07;;;;;;;2.67;2.47;;;;;14.90;96265.00;;;;5095061;28;20547;-61
2023/09/08 04:10:34;;;;;;;1.43;1.33;;;;;15.00;96270.00;;;;5095091;28;20210;-61
2023/09/08 04:13:01;;;;;;;1.10;1.10;;;;;15.10;96257.00;;;;5094827;28;20187;-61
2023/09/08 04:15:29;;;;;;;1.73;1.63;;;;;15.10;96256.00;;;;5095012;28;20190;-61
2023/09/08 04:17:57;;;;;;;2.07;1.90;;;;;15.00;96255.00;;;;5095070;28;20198;-61
2023/09/08 04:20:24;;;;;;;1.07;1.07;;;;;15.10;96263.00;;;;5094786;28;20226;-62
2023/09/08 04:22:51;;;;;;;1.70;1.60;;;;;15.20;96260.00;;;;5095389;28;20201;-62
2023/09/08 04:25:20;;;;;;;1.10;1.10;;;;;15.20;96259.00;;;;5094681;28;20187;-62
2023/09/08 04:27:48;;;;;;;2.50;2.03;;;;;15.20;96259.00;;;;5095143;28;20688;-62
2023/09/08 04:30:15;;;;;;;0.90;0.90;;;;;15.20;96261.00;;;;5093637;28;20222;-62
2023/09/08 04:32:43;;;;;;;1.57;1.47;;;;;15.30;96258.00;;;;5094837;28;20193;-62
2023/09/08 04:35:11;;;;;;;1.20;1.10;;;;;15.30;96260.00;;;;5095145;28;20191;-62
2023/09/08 04:37:39;;;;;;;1.00;1.00;;;;;15.30;96266.00;;;;5094797;28;20555;-62
2023/09/08 04:40:08;;;;;;;1.70;1.57;;;;;15.30;96271.00;;;;5094949;28;20217;-62
2023/09/08 04:42:36;;;;;;;1.83;1.73;;;;;15.20;96264.00;;;;5094479;28;20240;-62
2023/09/08 04:45:04;;;;;;;1.03;1.03;;;;;15.10;96272.00;;;;5095434;28;20305;-62
2023/09/08 04:47:32;;;;;;;0.83;0.83;;;;;15.10;96271.00;;;;5095463;28;20678;-62
2023/09/08 04:49:59;;;;;;;1.63;1.53;;;;;15.10;96264.00;;;;5094294;28;20215;-62
2023/09/08 04:52:26;;;;;;;1.20;1.20;;;;;15.20;96264.00;;;;5094305;28;20194;-62
2023/09/08 04:54:54;;;;;;;1.43;1.33;;;;;15.10;96269.00;;;;5094320;28;20190;-61
2023/09/08 04:57:25;;;;;;;1.43;1.37;;;;;15.10;96263.00;;;;5094712;28;20253;-63
2023/09/08 04:59:54;;;;;;;0.80;0.80;;;;;15.00;96265.00;;;;5094127;28;20215;-62
2023/09/08 05:02:21;;;;;;;1.87;1.77;;;;;14.90;96263.00;;;;5094566;28;20579;-62
2023/09/08 05:04:48;;;;;;;2.30;2.10;;;;;14.90;96267.00;;;;5094164;28;20206;-62
2023/09/08 05:07:17;;;;;;;3.87;2.00;;;;;15.00;96276.00;;;;5093724;28;20219;-62
2023/09/08 05:09:44;;;;;;;1.70;1.60;;;;;14.90;96281.00;;;;5093937;28;20198;-62
2023/09/08 05:12:11;;;;;;;1.17;1.17;;;;;14.80;96280.00;;;;5094474;28;20202;-62
2023/09/08 05:14:39;;;;;;;1.40;1.30;;;;;14.80;96284.00;;;;5094076;28;20202;-62
2023/09/08 05:17:07;;;;;;;1.23;1.23;;;;;14.90;96273.00;;;;5092494;28;20198;-61
2023/09/08 05:19:35;;;;;;;1.60;1.50;;;;;14.90;96280.00;;;;5094104;28;20187;-61
2023/09/08 05:22:02;;;;;;;1.73;1.60;;;;;14.90;96276.00;;;;5093965;28;20195;-61
2023/09/08 05:24:29;;;;;;;1.67;1.57;;;;;14.90;96277.00;;;;5094027;28;20653;-62
2023/09/08 05:26:57;;;;;;;4.47;1.60;;;;;14.70;96287.00;;;;5093519;28;20238;-61
2023/09/08 05:29:24;;;;;;;1.73;1.63;;;;;14.70;96284.00;;;;5093361;28;20187;-61
2023/09/08 05:31:52;;;;;;;1.47;1.37;;;;;14.70;96286.00;;;;5093907;28;20324;-62
2023/09/08 05:34:20;;;;;;;2.60;1.87;;;;;14.80;96287.00;;;;5092075;28;20195;-62
2023/09/08 05:36:48;;;;;;;1.80;1.70;;;;;14.80;96290.00;;;;5093585;28;20187;-62
2023/09/08 05:39:18;;;;;;;1.50;1.40;;;;;14.90;96284.00;;;;5093452;28;20195;-62
2023/09/08 05:41:46;;;;;;;1.30;1.30;;;;;14.90;96282.00;;;;5093288;28;20235;-62
2023/09/08 05:44:13;;;;;;;1.37;1.37;;;;;14.90;96291.00;;;;5092239;28;20191;-62
2023/09/08 05:46:40;;;;;;;2.00;1.90;;;;;14.90;96294.00;;;;5093292;28;20697;-62
2023/09/08 05:49:08;;;;;;;1.30;1.20;;;;;14.90;96293.00;;;;5093289;28;20655;-61
2023/09/08 05:51:37;;;;;;;1.33;1.23;;;;;15.00;96300.00;;;;5090731;28;20623;-62
2023/09/08 05:54:04;;;;;;;1.43;1.40;;;;;15.10;96296.00;;;;5089248;28;20199;-62
2023/09/08 05:56:32;;;;;;;1.93;1.33;;;;;15.30;96293.00;;;;5091647;28;20187;-62
2023/09/08 05:59:00;;;;;;;1.43;1.33;;;;;15.20;96288.00;;;;5091541;28;20214;-64
2023/09/08 06:01:28;;;;;;;1.73;1.63;;;;;15.30;96297.00;;;;5092114;28;20560;-63
2023/09/08 06:03:55;;;;;;;1.70;1.60;;;;;15.40;96300.00;;;;5086817;28;20677;-63
2023/09/08 06:10:19;;;;;;;1.60;1.57;;;;;15.50;96291.00;;;;4968496;28;20251;-61
2023/09/08 06:12:46;;;;;;;2.17;1.70;;;;;15.60;96297.00;;;;5071876;28;20215;-61
2023/09/08 06:15:14;;;;;;;4.10;1.30;;;;;15.50;96288.00;;;;5091432;28;20198;-60
2023/09/08 06:21:25;;;;;;;1.23;1.23;;;;;15.60;96293.00;;;;4928178;28;20262;-60
2023/09/08 06:23:52;;;;;;;1.73;1.63;;;;;15.60;96286.00;;;;5087252;28;20217;-60
2023/09/08 06:26:21;;;;;;;1.73;1.63;;;;;15.60;96286.00;;;;5090968;28;20207;-60
2023/09/08 06:28:48;;;;;;;1.60;1.50;;;;;15.70;96286.00;;;;5091406;28;20281;-62
2023/09/08 06:31:16;;;;;;;1.13;1.10;;;;;15.80;96295.00;;;;5091172;28;20214;-60
2023/09/08 06:33:43;;;;;;;1.63;1.53;;;;;15.90;96291.00;;;;5090739;28;20195;-60
2023/09/08 06:36:11;;;;;;;1.60;1.50;;;;;16.10;96287.00;;;;5091441;28;20194;-61
2023/09/08 06:38:38;;;;;;;1.80;1.70;;;;;16.10;96290.00;;;;5090820;28;20195;-61
2023/09/08 06:41:10;;;;;;;2.00;1.73;;;;;16.20;96283.00;;;;5091408;28;20210;-61
2023/09/08 06:43:39;;;;;;;1.60;1.27;;;;;16.30;96288.00;;;;5090844;28;20186;-61
2023/09/08 06:46:07;;;;;;;1.73;1.63;;;;;16.40;96296.00;;;;5089919;28;20218;-61
2023/09/08 06:48:34;;;;;;;0.80;0.80;;;;;16.50;96290.00;;;;5090154;28;20776;-61
2023/09/08 06:51:01;;;;;;;1.33;1.30;;;;;16.50;96299.00;;;;5091200;28;20289;-61
2023/09/08 06:53:30;;;;;;;1.73;1.63;;;;;16.50;96292.00;;;;5093276;28;20778;-61
2023/09/08 06:55:58;;;;;;;1.83;1.67;;;;;16.70;96289.00;;;;5094825;28;20206;-61
2023/09/08 06:58:25;;;;;;;1.07;1.07;;;;;16.60;96287.00;;;;5092544;28;20199;-61
2023/09/08 07:00:55;;;;;;;1.63;1.53;;;;;16.80;96290.00;;;;5094601;28;20233;-61
2023/09/08 07:03:22;;;;;;;2.00;1.90;;;;;16.90;96285.00;;;;5094445;28;20195;-61
2023/09/08 07:05:51;;;;;;;0.80;0.80;;;;;17.10;96281.00;;;;5094381;28;20718;-61
2023/09/08 07:08:18;;;;;;;0.97;0.97;;;;;17.10;96286.00;;;;5093120;28;20218;-61
2023/09/08 07:10:46;;;;;;;1.23;1.23;;;;;17.20;96283.00;;;;5094009;28;20218;-61
2023/09/08 07:13:13;;;;;;;1.17;1.17;;;;;17.30;96290.00;;;;5093898;28;20194;-61
2023/09/08 07:15:41;;;;;;;1.33;1.33;;;;;17.40;96291.00;;;;5093403;28;20210;-61
2023/09/08 07:18:09;;;;;;;2.43;2.20;;;;;17.50;96292.00;;;;5095063;28;20277;-61
2023/09/08 07:20:37;;;;;;;1.20;1.20;;;;;17.60;96295.00;;;;5093827;28;20234;-61
2023/09/08 07:23:04;;;;;;;1.80;1.70;;;;;17.60;96294.00;;;;5095281;28;20194;-61
2023/09/08 07:25:32;;;;;;;1.57;1.47;;;;;17.50;96287.00;;;;5093738;28;20191;-61
2023/09/08 07:27:59;;;;;;;1.40;1.40;;;;;17.50;96286.00;;;;5094125;28;20225;-61
2023/09/08 07:30:27;;;;;;;1.87;1.57;;;;;17.70;96280.00;;;;5092714;28;20222;-61
2023/09/08 07:32:54;;;;;;;3.30;1.33;;;;;18.10;96288.00;;;;5093963;28;20191;-61
2023/09/08 07:35:24;;;;;;;21.60;2.17;;;;;18.30;96272.00;;;;5093605;28;20278;-61
2023/09/08 07:37:51;;;;;;;2.20;2.10;;;;;18.40;96282.00;;;;5093889;28;20658;-61
2023/09/08 07:40:18;;;;;;;1.60;1.50;;;;;18.40;96271.00;;;;5095938;28;20214;-61
2023/09/08 07:42:46;;;;;;;2.37;1.80;;;;;18.60;96279.00;;;;5095838;28;20186;-61
2023/09/08 07:45:13;;;;;;;1.40;1.30;;;;;18.70;96280.00;;;;5095502;28;20194;-61
2023/09/08 07:47:41;;;;;;;1.10;1.10;;;;;18.60;96279.00;;;;5094267;28;20214;-61
2023/09/08 07:50:20;;;;;;;2.10;2.00;;;;;18.80;96277.00;;;;5092829;28;20226;-61
2023/09/08 07:52:57;;;;;;;2.00;1.90;;;;;19.00;96285.00;;;;5089697;28;20194;-61
2023/09/08 07:55:27;;;;;;;1.63;1.57;;;;;19.20;96290.00;;;;5093552;28;20661;-62
2023/09/08 07:57:55;;;;;;;2.43;2.23;;;;;19.40;96284.00;;;;5093475;28;20213;-61
2023/09/08 08:00:22;;;;;;;2.00;1.90;;;;;19.50;96286.00;;;;5093087;28;20273;-62
2023/09/08 08:02:54;;;;;;;1.13;1.13;;;;;19.70;96282.00;;;;5093554;28;20198;-62
2023/09/08 08:05:22;;;;;;;1.23;1.13;;;;;19.80;96291.00;;;;5092308;28;20298;-61
2023/09/08 08:07:51;;;;;;;1.73;1.63;;;;;19.90;96282.00;;;;5093555;28;20210;-61
2023/09/08 08:10:20;;;;;;;1.20;1.20;;;;;20.10;96279.00;;;;5093615;28;20218;-61
2023/09/08 08:12:50;;;;;;;1.63;1.55;;;;;20.40;96281.00;;;;5093169;28;20191;-61
2023/09/08 08:15:19;;;;;;;1.50;1.40;;;;;20.40;96281.00;;;;5093468;28;20282;-61
2023/09/08 08:17:50;;;;;;;2.37;2.17;;;;;20.60;96278.00;;;;5093149;28;20187;-61
2023/09/08 08:20:20;;;;;;;2.97;2.37;;;;;20.70;96281.00;;;;5092958;28;20218;-61
2023/09/08 08:22:47;;;;;;;1.63;1.52;;;;;20.80;96279.00;;;;5093423;28;20222;-61
2023/09/08 08:25:16;;;;;;;2.10;1.92;;;;;21.00;96283.00;;;;5088505;28;20191;-61
2023/09/08 08:27:44;;;;;;;1.60;1.50;;;;;21.00;96283.00;;;;5091582;28;20226;-61
2023/09/08 08:30:14;;;;;;;1.55;1.48;;;;;21.20;96280.00;;;;5093838;28;20234;-61
2023/09/08 08:32:42;;;;;;;2.40;2.20;;;;;21.40;96278.00;;;;5092637;28;20222;-61
2023/09/08 08:35:10;;;;;;;2.17;1.38;;;;;21.70;96280.00;;;;5093071;28;20281;-61
2023/09/08 08:37:40;;;;;;;1.67;1.58;;;;;21.80;96281.00;;;;5091516;28;20199;-61
2023/09/08 08:40:11;;;;;;;1.58;1.48;;;;;21.90;96277.00;;;;5091992;28;20240;-61
2023/09/08 08:42:42;;;;;;;2.00;1.90;;;;;22.00;96278.00;;;;5092354;28;20195;-61
2023/09/08 08:45:10;;;;;;;1.67;1.58;;;;;22.10;96283.00;;;;5092608;28;20661;-61
2023/09/08 08:47:38;;;;;;;1.67;1.58;;;;;22.20;96286.00;;;;5092782;28;20269;-61
2023/09/08 08:50:10;;;;;;;2.55;2.35;;;;;22.40;96281.00;;;;5091034;28;20623;-61
2023/09/08 08:52:38;;;;;;;1.02;1.02;;;;;22.50;96277.00;;;;5088777;28;20203;-61
2023/09/08 08:55:07;;;;;;;0.85;0.85;;;;;22.70;96272.00;;;;5092771;28;20604;-62
2023/09/08 08:57:39;;;;;;;1.80;1.70;;;;;22.80;96278.00;;;;5090781;28;20195;-61
2023/09/08 09:00:15;;;;;;;1.33;1.27;;;;;23.00;96275.00;;;;5092545;28;20218;-61
2023/09/08 09:02:47;;;;;;;2.55;2.25;;;;;23.00;96279.00;;;;5087652;28;20712;-61
2023/09/08 09:05:14;;;;;;;1.45;1.35;;;;;23.20;96265.00;;;;5092216;28;20603;-61
2023/09/08 09:07:47;;;;;;;1.73;1.63;;;;;23.20;96268.00;;;;5092320;28;20202;-61
2023/09/08 09:10:15;;;;;;;5.82;2.60;;;;;23.50;96266.00;;;;5092039;28;20219;-61
2023/09/08 09:12:46;;;;;;;1.10;1.10;;;;;23.50;96272.00;;;;5091991;28;20199;-61
2023/09/08 09:15:18;;;;;;;1.88;1.77;;;;;23.70;96266.00;;;;5091659;28;20681;-61
2023/09/08 09:18:02;;;;;;;3.03;2.28;;;;;23.70;96272.00;;;;5092307;28;20220;-61
2023/09/08 09:20:29;;;;;;;1.73;1.63;;;;;23.90;96271.00;;;;5087215;28;20214;-62
2023/09/08 09:23:03;;;;;;;1.10;1.10;;;;;24.00;96269.00;;;;5090807;28;20277;-62
2023/09/08 09:25:32;;;;;;;2.03;1.92;;;;;24.10;96270.00;;;;5091781;28;20298;-62
2023/09/08 09:28:04;;;;;;;1.90;1.35;;;;;24.10;96273.00;;;;5092135;28;20222;-62
2023/09/08 09:30:49;;;;;;;0.82;0.82;;;;;24.20;96281.00;;;;5091838;28;20953;-62
2023/09/08 09:33:17;;;;;;;2.72;1.52;;;;;24.30;96275.00;;;;5092666;28;20248;-62
2023/09/08 09:35:49;;;;;;;1.85;1.75;;;;;24.50;96271.00;;;;5091266;28;20190;-61
2023/09/08 09:38:18;;;;;;;1.60;1.45;;;;;24.60;96273.00;;;;5087725;28;20690;-61
2023/09/08 09:40:48;;;;;;;1.73;1.63;;;;;24.70;96261.00;;;;5090409;28;20604;-61
2023/09/08 09:43:17;;;;;;;1.65;1.55;;;;;24.70;96266.00;;;;5092032;28;20680;-61
2023/09/08 09:45:45;;;;;;;1.35;1.27;;;;;24.70;96264.00;;;;5091512;28;20201;-62
2023/09/08 09:48:13;;;;;;;1.70;1.60;;;;;24.70;96266.00;;;;5091696;28;20224;-62
2023/09/08 09:50:46;;;;;;;1.60;1.50;;;;;24.90;96253.00;;;;5090860;28;20221;-62
2023/09/08 09:53:18;;;;;;;4.18;1.63;;;;;25.00;96262.00;;;;5091839;28;20247;-62
2023/09/08 09:55:48;;;;;;;1.80;1.67;;;;;25.10;96265.00;;;;5091290;28;20190;-62
2023/09/08 09:58:31;;;;;;;2.08;1.88;;;;;25.20;96270.00;;;;5091900;28;20228;-62
2023/09/08 10:01:03;;;;;;;1.38;1.30;;;;;25.30;96265.00;;;;5091113;28;20214;-62
2023/09/08 10:03:40;;;;;;;1.65;1.55;;;;;25.60;96261.00;;;;5087532;28;20197;-62
2023/09/08 10:06:10;;;;;;;1.63;1.52;;;;;25.70;96268.00;;;;5090997;28;20202;-63
2023/09/08 10:08:38;;;;;;;2.05;1.85;;;;;25.80;96257.00;;;;5091868;28;20219;-62
2023/09/08 10:11:08;;;;;;;1.50;1.40;;;;;25.90;96263.00;;;;5091317;28;20219;-62
2023/09/08 10:13:43;;;;;;;1.05;1.05;;;;;26.00;96265.00;;;;5090220;28;20206;-62
2023/09/08 10:16:14;;;;;;;1.67;1.58;;;;;26.10;96261.00;;;;5088626;28;20205;-62
2023/09/08 10:18:45;;;;;;;1.35;1.30;;;;;26.30;96255.00;;;;5090746;28;20210;-62
2023/09/08 10:21:17;;;;;;;1.40;1.30;;;;;26.40;96252.00;;;;5090113;28;20309;-62
2023/09/08 10:23:54;;;;;;;2.85;2.40;;;;;26.50;96247.00;;;;5088941;28;20256;-62
2023/09/08 10:26:34;;;;;;;1.17;1.17;;;;;26.80;96241.00;;;;5087762;28;20190;-62
2023/09/08 10:29:03;;;;;;;1.27;1.27;;;;;27.00;96235.00;;;;5095026;28;20210;-62
2023/09/08 10:31:34;;;;;;;2.38;2.17;;;;;27.10;96239.00;;;;5095001;28;20223;-62
2023/09/08 10:34:03;;;;;;;1.88;1.77;;;;;27.20;96239.00;;;;5095762;28;20232;-62
2023/09/08 10:36:30;;;;;;;1.25;1.15;;;;;27.30;96236.00;;;;5095263;28;20255;-62
2023/09/08 10:39:39;;;;;;;1.38;1.25;;;;;27.50;96232.00;;;;5093823;28;20198;-62
2023/09/08 10:42:25;;;;;;;1.85;1.42;;;;;27.70;96234.00;;;;5095081;28;20664;-63
2023/09/08 10:45:20;;;;;;;1.50;1.40;;;;;27.70;96232.00;;;;5093185;28;20213;-62
2023/09/08 10:48:00;;;;;;;1.75;1.35;;;;;27.80;96239.00;;;;5092190;28;20206;-62
2023/09/08 10:50:33;;;;;;;1.45;1.38;;;;;27.90;96234.00;;;;5095179;28;20222;-63
2023/09/08 10:53:19;;;;;;;1.70;1.60;;;;;28.10;96247.00;;;;5094516;28;20232;-62
2023/09/08 10:55:48;;;;;;;1.75;1.65;;;;;28.20;96235.00;;;;5094936;28;20205;-62
2023/09/08 10:58:20;;;;;;;2.47;2.38;;;;;28.20;96236.00;;;;5094659;28;20187;-62
2023/09/08 11:00:59;;;;;;;1.02;1.02;;;;;28.50;96239.00;;;;5094727;28;20242;-63
2023/09/08 11:03:44;;;;;;;1.63;1.52;;;;;28.60;96232.00;;;;5093866;28;20220;-63
2023/09/08 11:06:16;;;;;;;1.80;1.70;;;;;28.50;96239.00;;;;5090775;28;20239;-61
2023/09/08 11:08:45;;;;;;;1.38;1.30;;;;;28.70;96239.00;;;;5094197;28;20223;-63
2023/09/08 11:11:13;;;;;;;0.93;0.93;;;;;28.90;96241.00;;;;5094540;28;20217;-63
2023/09/08 11:13:41;;;;;;;1.70;1.60;;;;;29.10;96233.00;;;;5094485;28;20734;-64
2023/09/08 11:16:10;;;;;;;1.65;1.48;;;;;29.10;96240.00;;;;5094249;28;20546;-64
2023/09/08 11:18:37;;;;;;;1.70;1.60;;;;;28.90;96233.00;;;;5094690;28;20187;-63
2023/09/08 11:21:08;;;;;;;1.38;1.33;;;;;29.00;96238.00;;;;5094112;28;20222;-62
2023/09/08 11:23:35;;;;;;;2.45;2.17;;;;;29.30;96236.00;;;;5094250;28;20197;-62
2023/09/08 11:26:03;;;;;;;4.10;2.30;;;;;29.40;96240.00;;;;5092648;28;20203;-60
2023/09/08 11:28:31;;;;;;;1.75;1.65;;;;;29.50;96233.00;;;;5093473;28;20218;-61
2023/09/08 11:30:59;;;;;;;1.80;1.70;;;;;29.70;96234.00;;;;5092770;28;20210;-61
2023/09/08 11:33:27;;;;;;;2.30;2.10;;;;;29.60;96244.00;;;;5094018;28;20187;-61
2023/09/08 11:35:55;;;;;;;1.73;1.63;;;;;29.90;96247.00;;;;5093948;28;20248;-61
2023/09/08 11:38:29;;;;;;;1.52;1.40;;;;;29.80;96237.00;;;;5093631;28;20197;-61
2023/09/08 11:40:58;;;;;;;1.95;1.83;;;;;30.00;96243.00;;;;5093662;28;20219;-61
2023/09/08 11:43:27;;;;;;;2.83;2.35;;;;;30.10;96243.00;;;;5093390;28;20661;-61
2023/09/08 11:45:54;;;;;;;2.35;2.15;;;;;30.10;96242.00;;;;5094146;28;20618;-61
2023/09/08 11:48:22;;;;;;;2.22;2.00;;;;;30.30;96238.00;;;;5092635;28;20215;-61
2023/09/08 11:50:53;;;;;;;1.45;1.33;;;;;30.30;96238.00;;;;5089679;28;20210;-61
2023/09/08 11:53:21;;;;;;;1.85;1.75;;;;;30.50;96237.00;;;;5091714;28;20206;-61
2023/09/08 11:55:49;;;;;;;2.05;1.95;;;;;30.40;96250.00;;;;5093544;28;20209;-61
2023/09/08 11:58:17;;;;;;;1.90;1.80;;;;;30.40;96241.00;;;;5093802;28;20598;-61
2023/09/08 12:00:47;;;;;;;2.55;1.73;;;;;30.40;96249.00;;;;5094428;28;20218;-61
2023/09/08 12:03:16;;;;;;;1.80;1.70;;;;;30.50;96246.00;;;;5088905;28;20202;-61
2023/09/08 12:05:46;;;;;;;1.50;1.40;;;;;30.30;96248.00;;;;5093124;28;20564;-61
2023/09/08 12:08:15;;;;;;;1.25;1.25;;;;;30.60;96247.00;;;;5091887;28;20552;-61
2023/09/08 12:10:47;;;;;;;2.15;2.05;;;;;30.80;96246.00;;;;5093098;28;20226;-61
2023/09/08 12:13:21;;;;;;;1.50;1.50;;;;;30.90;96250.00;;;;5093509;28;20203;-61
2023/09/08 12:15:54;;;;;;;2.40;2.20;;;;;31.00;96246.00;;;;5092731;28;20225;-61
2023/09/08 12:18:39;;;;;;;2.95;1.58;;;;;31.20;96242.00;;;;5093107;28;20201;-61
2023/09/08 12:21:07;;;;;;;1.13;1.13;;;;;31.30;96242.00;;;;5090933;28;20555;-61
2023/09/08 12:23:47;;;;;;;1.65;1.55;;;;;31.30;96242.00;;;;5092454;28;20199;-61
2023/09/08 12:26:17;;;;;;;1.35;1.30;;;;;31.40;96244.00;;;;5092213;28;20198;-61
2023/09/08 12:28:48;;;;;;;1.80;1.70;;;;;31.40;96238.00;;;;5093004;28;20233;-62
2023/09/08 12:31:16;;;;;;;2.08;1.98;;;;;31.60;96237.00;;;;5092901;28;20214;-61
2023/09/08 12:33:44;;;;;;;1.63;1.52;;;;;31.70;96241.00;;;;5093623;28;20195;-61
2023/09/08 12:36:15;;;;;;;2.15;2.05;;;;;31.50;96243.00;;;;5092682;28;20311;-61